Time;durP1;ratioP1;P1;durP2;ratioP2;P2;SDS_P1;SDS_P2;PMS_P1;PMS_P2;Temp;Humidity;BMP_temperature;BMP_pressure;BME280_temperature;BME280_humidity;BME280_pressure;Samples;Min_cycle;Max_cycle;Signal;HPM_P1;HPM_P2
2022/03/28 00:00:06;;;;;;;6.85;5.03;;;;;;;11.78;46.85;99298.28;4963982;28;20666;-65
2022/03/28 00:02:32;;;;;;;13.23;6.15;;;;;;;11.66;46.23;99298.97;4959039;28;20177;-65
2022/03/28 00:04:57;;;;;;;12.63;7.65;;;;;;;11.60;46.43;99294.16;4963605;28;20219;-65
2022/03/28 00:07:22;;;;;;;9.10;6.00;;;;;;;11.63;46.72;99305.22;4961578;28;20181;-65
2022/03/28 00:09:48;;;;;;;8.88;6.03;;;;;;;11.62;47.15;99295.72;4959261;28;20765;-67
2022/03/28 00:12:13;;;;;;;14.27;7.90;;;;;;;11.74;47.08;99300.19;4954439;28;20208;-66
2022/03/28 00:14:39;;;;;;;9.43;5.50;;;;;;;11.92;47.04;99304.31;4939548;28;20212;-66
2022/03/28 00:17:05;;;;;;;6.78;5.22;;;;;;;12.03;46.33;99308.84;4941330;28;20742;-65
2022/03/28 00:19:30;;;;;;;9.45;5.60;;;;;;;11.95;45.73;99298.94;4957862;28;20558;-65
2022/03/28 00:21:56;;;;;;;11.60;5.63;;;;;;;11.86;46.33;99301.25;4961578;28;20185;-65
2022/03/28 00:24:22;;;;;;;8.80;5.10;;;;;;;11.91;46.40;99312.19;4960769;28;20575;-66
2022/03/28 00:26:47;;;;;;;7.00;5.03;;;;;;;11.69;47.10;99298.81;4954896;28;20212;-65
2022/03/28 00:29:13;;;;;;;5.43;4.90;;;;;;;11.71;47.23;99309.91;4956788;28;20193;-66
2022/03/28 00:31:38;;;;;;;8.00;5.45;;;;;;;11.79;46.56;99299.94;4966695;28;20184;-67
2022/03/28 00:34:04;;;;;;;10.27;5.57;;;;;;;11.82;46.52;99295.41;4960382;28;20184;-65
2022/03/28 00:36:29;;;;;;;7.63;6.13;;;;;;;11.86;46.05;99298.66;4958797;28;20267;-67
2022/03/28 00:38:55;;;;;;;11.75;5.50;;;;;;;11.88;46.12;99294.19;4959921;28;20240;-65
2022/03/28 00:41:20;;;;;;;6.18;5.32;;;;;;;11.92;46.38;99296.53;4964275;28;20188;-65
2022/03/28 00:43:59;;;;;;;8.40;5.72;;;;;;;11.72;46.31;99294.28;4958959;28;20255;-66
2022/03/28 00:46:25;;;;;;;8.02;5.72;;;;;;;11.64;46.57;99290.47;4961475;28;20267;-65
2022/03/28 00:48:52;;;;;;;8.50;4.97;;;;;;;11.67;46.57;99295.50;4957197;28;20658;-65
2022/03/28 00:51:19;;;;;;;10.02;5.68;;;;;;;11.59;46.76;99298.53;4965375;28;20239;-65
2022/03/28 00:53:46;;;;;;;6.97;5.32;;;;;;;11.47;46.65;99300.94;4964038;28;20650;-65
2022/03/28 00:56:12;;;;;;;9.93;5.47;;;;;;;11.40;46.76;99307.41;4944199;28;20216;-65
2022/03/28 00:58:38;;;;;;;7.72;5.53;;;;;;;11.27;46.69;99311.63;4940175;28;20185;-66
2022/03/28 01:01:04;;;;;;;8.38;5.13;;;;;;;11.09;47.72;99307.50;4949169;28;20662;-65
2022/03/28 01:03:29;;;;;;;11.00;6.07;;;;;;;11.08;47.83;99301.47;4959755;28;20311;-65
2022/03/28 01:05:55;;;;;;;8.88;5.45;;;;;;;11.00;48.37;99302.81;4957557;28;20284;-65
2022/03/28 01:08:21;;;;;;;8.10;5.60;;;;;;;11.02;48.13;99295.78;4960706;28;20245;-65
2022/03/28 01:10:50;;;;;;;8.73;5.32;;;;;;;11.14;47.67;99308.91;4928675;28;20192;-65
2022/03/28 01:13:16;;;;;;;8.40;5.05;;;;;;;11.14;47.93;99305.50;4959078;28;20312;-65
2022/03/28 01:15:42;;;;;;;12.40;5.80;;;;;;;11.16;47.89;99319.19;4955080;28;20188;-65
2022/03/28 01:18:09;;;;;;;6.22;5.40;;;;;;;11.20;48.42;99310.31;4957914;28;20196;-65
2022/03/28 01:20:37;;;;;;;7.50;5.28;;;;;;;11.20;48.06;99310.31;4960271;28;20766;-65
2022/03/28 01:23:03;;;;;;;12.35;6.00;;;;;;;10.96;49.32;99316.84;4955102;28;20200;-65
2022/03/28 01:25:31;;;;;;;9.00;6.38;;;;;;;11.01;49.59;99304.50;4958821;28;20965;-67
2022/03/28 01:27:58;;;;;;;10.02;5.18;;;;;;;11.03;49.08;99313.03;4959591;28;20286;-67
2022/03/28 01:30:26;;;;;;;10.27;5.55;;;;;;;11.07;48.81;99306.72;4958801;28;20180;-67
2022/03/28 01:32:53;;;;;;;8.93;5.32;;;;;;;11.06;48.39;99312.84;4955643;28;20212;-67
2022/03/28 01:35:45;;;;;;;7.97;5.15;;;;;;;10.81;49.16;99307.38;4964317;28;20580;-67
2022/03/28 01:38:13;;;;;;;8.70;5.00;;;;;;;10.89;49.29;99300.00;4935118;28;20203;-67
2022/03/28 01:40:41;;;;;;;10.88;5.82;;;;;;;10.96;49.20;99298.72;4939185;28;20251;-67
2022/03/28 01:43:07;;;;;;;13.40;5.55;;;;;;;10.93;49.38;99297.16;4955169;28;20176;-67
2022/03/28 01:45:32;;;;;;;10.15;5.43;;;;;;;10.74;49.54;99291.31;4965582;28;20236;-66
2022/03/28 01:47:57;;;;;;;6.03;5.07;;;;;;;10.73;49.86;99304.38;4954829;28;20188;-67
2022/03/28 01:50:23;;;;;;;8.15;5.05;;;;;;;10.80;49.52;99295.34;4964588;28;20184;-67
2022/03/28 01:52:49;;;;;;;8.32;5.45;;;;;;;10.76;49.78;99304.19;4964973;28;20637;-67
2022/03/28 01:55:15;;;;;;;9.60;5.30;;;;;;;10.52;50.80;99300.34;4963751;28;20571;-67
2022/03/28 01:57:42;;;;;;;12.85;5.63;;;;;;;10.49;51.26;99298.75;4943583;28;20216;-67
2022/03/28 02:00:13;;;;;;;7.78;5.60;;;;;;;10.54;51.43;99308.84;4937925;28;20248;-67
2022/03/28 02:02:39;;;;;;;9.90;5.47;;;;;;;10.59;50.93;99306.84;4923105;28;20542;-65
2022/03/28 02:05:05;;;;;;;8.98;5.85;;;;;;;10.59;50.93;99302.53;4951426;28;20200;-67
2022/03/28 02:07:30;;;;;;;10.80;6.03;;;;;;;10.59;51.32;99301.69;4951632;28;20188;-65
2022/03/28 02:09:56;;;;;;;9.65;5.90;;;;;;;10.54;51.62;99295.91;4958826;28;20173;-67
2022/03/28 02:12:22;;;;;;;7.70;5.57;;;;;;;10.50;51.76;99302.19;4948494;28;20701;-67
2022/03/28 02:14:47;;;;;;;9.13;5.43;;;;;;;10.45;52.04;99304.19;4957659;28;20184;-65
2022/03/28 02:17:13;;;;;;;10.60;5.93;;;;;;;10.53;51.75;99314.97;4964802;28;20180;-65
2022/03/28 02:19:38;;;;;;;10.48;6.50;;;;;;;10.41;52.74;99331.13;4938137;28;20189;-66
2022/03/28 02:22:04;;;;;;;10.18;6.95;;;;;;;10.49;52.94;99328.97;4939186;28;20192;-66
2022/03/28 02:24:30;;;;;;;9.57;6.95;;;;;;;10.48;53.20;99328.16;4953333;28;20196;-67
2022/03/28 02:26:56;;;;;;;25.73;8.15;;;;;;;10.21;54.08;99321.84;4971298;28;20238;-67
2022/03/28 02:29:21;;;;;;;20.77;6.93;;;;;;;10.39;53.28;99326.03;4961063;28;20312;-67
2022/03/28 02:31:47;;;;;;;11.73;6.28;;;;;;;10.43;53.15;99318.94;4966090;28;20192;-67
2022/03/28 02:34:12;;;;;;;10.15;5.82;;;;;;;10.53;52.54;99327.91;4960131;28;20639;-67
2022/03/28 02:36:39;;;;;;;10.73;5.72;;;;;;;10.32;53.28;99324.69;4962862;28;20196;-66
2022/03/28 02:39:05;;;;;;;9.13;5.88;;;;;;;10.37;52.96;99322.72;4948119;28;20185;-65
2022/03/28 02:41:30;;;;;;;10.27;6.13;;;;;;;10.37;53.00;99327.03;4940681;28;20183;-67
2022/03/28 02:43:56;;;;;;;12.60;5.82;;;;;;;10.33;53.33;99325.56;4942809;28;20232;-65
2022/03/28 02:46:21;;;;;;;10.95;7.00;;;;;;;10.36;53.62;99323.63;4959111;28;20263;-65
2022/03/28 02:48:47;;;;;;;14.13;6.30;;;;;;;10.38;53.86;99323.53;4960722;28;20181;-67
2022/03/28 02:51:12;;;;;;;11.10;6.63;;;;;;;10.22;54.11;99322.69;4963927;28;20181;-65
2022/03/28 02:53:37;;;;;;;11.10;6.18;;;;;;;10.20;53.67;99308.97;4956013;28;20694;-66
2022/03/28 02:56:03;;;;;;;10.05;6.60;;;;;;;10.30;53.44;99321.38;4956381;28;20262;-67
2022/03/28 02:58:29;;;;;;;10.57;5.63;;;;;;;10.26;53.54;99317.25;4960858;28;20563;-66
2022/03/28 03:00:54;;;;;;;10.05;6.82;;;;;;;10.08;54.39;99319.97;4952823;28;20232;-65
2022/03/28 03:03:20;;;;;;;12.18;6.70;;;;;;;10.23;53.85;99325.19;4940984;28;20264;-65
2022/03/28 03:05:46;;;;;;;9.38;6.15;;;;;;;10.34;53.46;99334.97;4944346;28;20283;-66
2022/03/28 03:08:11;;;;;;;8.55;6.20;;;;;;;10.22;54.20;99323.50;4970577;28;20192;-67
2022/03/28 03:10:37;;;;;;;10.38;6.25;;;;;;;10.03;54.81;99327.09;4957634;28;20317;-66
2022/03/28 03:13:03;;;;;;;9.30;6.18;;;;;;;10.02;55.05;99335.78;4957227;28;20181;-67
2022/03/28 03:15:28;;;;;;;8.35;6.13;;;;;;;10.12;55.03;99331.84;4961152;28;20191;-66
2022/03/28 03:17:54;;;;;;;10.40;6.60;;;;;;;10.00;55.41;99328.13;4960136;28;20262;-66
2022/03/28 03:20:19;;;;;;;10.45;6.25;;;;;;;9.79;56.09;99338.69;4955460;28;20198;-67
2022/03/28 03:22:44;;;;;;;9.57;5.65;;;;;;;9.84;55.86;99340.16;4959907;28;20222;-67
2022/03/28 03:25:10;;;;;;;7.82;6.03;;;;;;;9.71;56.68;99340.84;4960244;28;20348;-67
2022/03/28 03:27:37;;;;;;;9.10;5.82;;;;;;;9.81;56.54;99353.22;4962303;28;20283;-65
2022/03/28 03:30:06;;;;;;;9.40;6.72;;;;;;;9.90;57.50;99357.94;4958541;28;20255;-65
2022/03/28 03:32:31;;;;;;;14.85;7.97;;;;;;;9.96;59.41;99354.19;4956601;28;20219;-65
2022/03/28 03:34:57;;;;;;;12.32;8.95;;;;;;;10.00;60.55;99358.28;4957289;28;20208;-67
2022/03/28 03:37:22;;;;;;;10.70;8.07;;;;;;;9.94;60.84;99361.19;4963284;28;20192;-65
2022/03/28 03:39:48;;;;;;;11.65;7.00;;;;;;;9.83;60.12;99360.91;4953754;28;20189;-67
2022/03/28 03:42:13;;;;;;;10.52;8.48;;;;;;;9.71;60.16;99356.34;4960881;28;20188;-67
2022/03/28 03:44:39;;;;;;;19.83;9.27;;;;;;;9.70;59.96;99362.44;4958683;28;20631;-67
2022/03/28 03:47:05;;;;;;;14.77;10.02;;;;;;;9.75;60.09;99373.38;4960376;28;20695;-67
2022/03/28 03:49:30;;;;;;;12.90;7.88;;;;;;;9.65;61.77;99372.16;4965915;28;20275;-66
2022/03/28 03:51:56;;;;;;;15.98;8.30;;;;;;;9.67;61.81;99372.91;4963383;28;20211;-66
2022/03/28 03:54:21;;;;;;;10.27;8.30;;;;;;;9.48;62.04;99372.16;4968604;28;20215;-67
2022/03/28 03:56:46;;;;;;;20.60;8.60;;;;;;;9.31;61.94;99374.72;4952929;28;20236;-67
2022/03/28 03:59:12;;;;;;;13.63;7.85;;;;;;;9.46;61.83;99373.97;4957375;28;20674;-65
2022/03/28 04:01:37;;;;;;;10.27;7.93;;;;;;;9.57;61.40;99378.63;4961626;28;20616;-67
2022/03/28 04:04:03;;;;;;;11.70;8.18;;;;;;;9.44;61.84;99382.72;4955667;28;20263;-66
2022/03/28 04:06:29;;;;;;;13.25;8.18;;;;;;;9.28;62.50;99392.94;4959199;28;20184;-66
2022/03/28 04:08:54;;;;;;;16.60;7.88;;;;;;;9.29;62.14;99392.03;4961556;28;20219;-67
2022/03/28 04:11:20;;;;;;;17.33;8.90;;;;;;;9.47;64.38;99404.06;4962530;28;20188;-67
2022/03/28 04:13:45;;;;;;;18.17;9.07;;;;;;;9.48;66.70;99415.22;4956692;28;20513;-66
2022/03/28 04:16:11;;;;;;;17.58;10.25;;;;;;;9.44;67.10;99405.97;4962066;28;20176;-66
2022/03/28 04:18:36;;;;;;;12.85;9.18;;;;;;;9.13;66.87;99403.97;4955458;28;20231;-66
2022/03/28 04:21:02;;;;;;;14.57;9.93;;;;;;;9.16;67.27;99408.16;4930371;28;20251;-66
2022/03/28 04:23:28;;;;;;;18.60;10.43;;;;;;;9.24;67.72;99400.88;4963943;28;20189;-66
2022/03/28 04:25:53;;;;;;;15.13;9.60;;;;;;;9.37;68.16;99412.34;4957914;28;20191;-67
2022/03/28 04:28:19;;;;;;;21.58;10.73;;;;;;;9.43;69.10;99420.59;4958713;28;20586;-66
2022/03/28 04:30:45;;;;;;;19.70;9.82;;;;;;;9.29;70.08;99417.84;4962943;28;20195;-66
2022/03/28 04:33:11;;;;;;;18.98;10.82;;;;;;;9.06;72.94;99428.41;4955219;28;20699;-66
2022/03/28 04:35:38;;;;;;;15.02;10.68;;;;;;;9.16;73.02;99434.84;4958151;28;20279;-66
2022/03/28 04:38:09;;;;;;;19.70;10.23;;;;;;;9.29;73.98;99435.94;4964986;28;20254;-66
2022/03/28 04:40:36;;;;;;;21.05;11.15;;;;;;;9.37;74.52;99444.16;4966140;28;20187;-66
2022/03/28 04:43:02;;;;;;;19.10;10.77;;;;;;;9.30;74.96;99436.75;4958746;28;20180;-66
2022/03/28 04:45:28;;;;;;;17.08;10.50;;;;;;;9.32;75.25;99440.94;4952158;28;20208;-65
2022/03/28 04:47:54;;;;;;;16.75;10.05;;;;;;;9.40;74.93;99453.50;4938602;28;20192;-67
2022/03/28 04:50:20;;;;;;;18.40;11.25;;;;;;;9.29;75.65;99450.56;4940698;28;20204;-66
2022/03/28 04:52:46;;;;;;;25.80;14.75;;;;;;;9.28;76.88;99452.34;4951653;28;20199;-66
2022/03/28 04:55:12;;;;;;;20.58;13.55;;;;;;;9.30;77.31;99457.41;4955220;28;20187;-66
2022/03/28 04:57:37;;;;;;;17.85;10.48;;;;;;;9.31;77.80;99453.94;4956766;28;20195;-66
2022/03/28 05:00:05;;;;;;;26.90;12.70;;;;;;;9.30;78.54;99453.09;4952815;28;20184;-66
2022/03/28 05:02:30;;;;;;;15.10;11.32;;;;;;;9.35;78.57;99453.72;4960447;28;20225;-65
2022/03/28 05:04:56;;;;;;;18.73;10.90;;;;;;;9.28;78.99;99457.50;4967620;28;20300;-66
2022/03/28 05:07:29;;;;;;;21.23;12.82;;;;;;;9.21;79.36;99457.84;4961050;28;20200;-66
2022/03/28 05:09:56;;;;;;;16.02;10.93;;;;;;;9.24;79.11;99453.38;4958063;28;20219;-66
2022/03/28 05:12:22;;;;;;;23.45;13.25;;;;;;;9.43;77.45;99464.53;4961370;28;20184;-66
2022/03/28 05:14:48;;;;;;;18.02;11.43;;;;;;;9.48;76.92;99457.41;4963854;28;20576;-66
2022/03/28 05:17:15;;;;;;;18.35;10.77;;;;;;;9.62;76.48;99462.72;4954511;28;20200;-66
2022/03/28 05:19:42;;;;;;;28.23;16.30;;;;;;;9.67;76.16;99465.94;4956028;28;20211;-66
2022/03/28 05:22:07;;;;;;;20.15;14.10;;;;;;;9.82;75.16;99460.03;4949843;28;20200;-66
2022/03/28 05:24:32;;;;;;;24.85;11.95;;;;;;;9.86;74.50;99464.16;4956650;28;20213;-66
2022/03/28 05:26:58;;;;;;;18.75;11.07;;;;;;;9.89;74.45;99461.41;4961512;28;20241;-66
2022/03/28 05:29:24;;;;;;;19.27;10.60;;;;;;;9.84;74.56;99463.38;4937414;28;20189;-66
2022/03/28 05:31:50;;;;;;;19.73;10.25;;;;;;;9.58;78.27;99464.63;4939168;28;20184;-65
2022/03/28 05:34:15;;;;;;;24.10;11.00;;;;;;;9.60;79.02;99467.16;4944857;28;20183;-65
2022/03/28 05:36:42;;;;;;;25.85;18.50;;;;;;;9.86;76.47;99469.31;4957683;28;20243;-65
2022/03/28 05:39:08;;;;;;;23.25;10.90;;;;;;;9.93;76.00;99475.84;4953032;28;20291;-65
2022/03/28 05:41:33;;;;;;;23.33;10.73;;;;;;;10.04;75.07;99473.63;4958889;28;20729;-67
2022/03/28 05:43:59;;;;;;;15.75;10.32;;;;;;;10.11;75.19;99478.38;4959354;28;20208;-67
2022/03/28 05:46:25;;;;;;;17.20;9.90;;;;;;;10.12;75.55;99474.06;4958021;28;20262;-66
2022/03/28 05:48:50;;;;;;;12.52;9.02;;;;;;;10.05;75.30;99459.78;4952723;28;21562;-66
2022/03/28 05:51:16;;;;;;;16.13;9.98;;;;;;;10.18;75.05;99476.34;4956700;28;20203;-67
2022/03/28 05:53:41;;;;;;;13.82;8.82;;;;;;;10.03;76.64;99484.81;4959130;28;20180;-66
2022/03/28 05:56:07;;;;;;;18.92;9.40;;;;;;;9.72;79.76;99494.16;4965118;28;20187;-66
2022/03/28 05:58:33;;;;;;;17.30;9.70;;;;;;;9.57;81.60;99493.13;4961761;28;20181;-66
2022/03/28 06:01:00;;;;;;;17.35;9.43;;;;;;;9.45;82.11;99478.22;4956358;28;20192;-66
2022/03/28 06:03:26;;;;;;;19.27;10.68;;;;;;;9.18;85.92;99483.81;4957997;28;20235;-66
2022/03/28 06:05:51;;;;;;;12.45;8.80;;;;;;;9.39;84.35;99496.56;4959083;28;20283;-66
2022/03/28 06:08:17;;;;;;;13.02;8.60;;;;;;;9.44;83.62;99497.19;4955294;28;20275;-66
2022/03/28 06:10:42;;;;;;;15.00;8.82;;;;;;;9.38;83.66;99497.47;4955490;28;20705;-66
2022/03/28 06:13:08;;;;;;;17.55;8.50;;;;;;;9.50;82.83;99488.31;4957337;28;20195;-66
2022/03/28 06:15:36;;;;;;;16.75;8.93;;;;;;;9.43;83.39;99480.03;4960101;28;21217;-66
2022/03/28 06:18:05;;;;;;;14.27;8.32;;;;;;;9.52;82.51;99485.59;4964869;28;20207;-67
2022/03/28 06:20:34;;;;;;;15.55;8.35;;;;;;;9.44;82.87;99492.03;4957754;28;20666;-66
2022/03/28 06:23:02;;;;;;;20.70;9.02;;;;;;;9.64;81.60;99486.78;4960509;28;20193;-66
2022/03/28 06:25:28;;;;;;;12.38;7.05;;;;;;;9.63;81.34;99486.84;4960421;28;20239;-66
2022/03/28 06:27:53;;;;;;;15.90;8.43;;;;;;;9.71;81.21;99485.56;4966648;28;20220;-66
2022/03/28 06:30:19;;;;;;;12.10;7.90;;;;;;;9.94;79.36;99483.56;4958923;28;20270;-66
2022/03/28 06:32:45;;;;;;;16.80;8.55;;;;;;;10.26;77.45;99489.72;4955862;28;20196;-66
2022/03/28 06:35:10;;;;;;;14.13;8.55;;;;;;;10.46;76.46;99487.78;4957683;28;20189;-68
2022/03/28 06:37:36;;;;;;;21.08;8.73;;;;;;;10.48;75.30;99487.72;4953569;28;20191;-66
2022/03/28 06:40:03;;;;;;;14.60;7.75;;;;;;;10.56;75.51;99490.78;4956361;28;20193;-66
2022/03/28 06:42:31;;;;;;;15.60;8.57;;;;;;;10.75;73.94;99491.50;4952888;28;20618;-66
2022/03/28 06:44:57;;;;;;;11.90;7.53;;;;;;;10.66;74.22;99491.97;4922168;28;20283;-66
2022/03/28 06:47:22;;;;;;;20.15;9.27;;;;;;;10.77;73.77;99490.50;4959063;28;20276;-66
2022/03/28 06:49:47;;;;;;;12.18;7.93;;;;;;;10.90;71.97;99488.94;4959421;28;20752;-67
2022/03/28 06:52:13;;;;;;;16.02;8.98;;;;;;;10.63;73.01;99489.53;4958960;28;20509;-65
2022/03/28 06:54:38;;;;;;;14.13;8.95;;;;;;;10.52;73.00;99494.44;4956374;28;20188;-67
2022/03/28 06:57:04;;;;;;;13.60;8.23;;;;;;;10.44;73.85;99484.47;4958546;28;20254;-67
2022/03/28 06:59:29;;;;;;;23.75;8.68;;;;;;;10.66;72.76;99491.97;4951003;28;20738;-67
2022/03/28 07:01:56;;;;;;;14.75;8.95;;;;;;;10.56;72.32;99494.19;4967297;28;20191;-67
2022/03/28 07:04:22;;;;;;;17.63;8.80;;;;;;;10.45;73.10;99500.84;4957478;28;20227;-67
2022/03/28 07:06:49;;;;;;;17.20;7.68;;;;;;;10.37;73.17;99492.59;4958873;28;20268;-65
2022/03/28 07:09:14;;;;;;;14.35;7.88;;;;;;;10.74;71.95;99498.41;4961021;28;20247;-65
2022/03/28 07:11:40;;;;;;;11.85;7.25;;;;;;;10.95;70.87;99486.94;4956450;28;20184;-65
2022/03/28 07:14:05;;;;;;;15.20;7.88;;;;;;;11.13;70.03;99495.47;4960650;28;20483;-66
2022/03/28 07:16:31;;;;;;;14.52;7.40;;;;;;;11.40;68.37;99494.00;4959897;28;20196;-65
2022/03/28 07:18:56;;;;;;;12.75;7.70;;;;;;;11.56;66.45;99489.66;4963119;28;20180;-65
2022/03/28 07:21:22;;;;;;;17.55;7.97;;;;;;;11.60;65.89;99496.34;4959908;28;20501;-65
2022/03/28 07:23:48;;;;;;;11.77;7.53;;;;;;;11.73;66.12;99494.75;4966414;28;20258;-66
2022/03/28 07:26:14;;;;;;;16.20;7.97;;;;;;;11.92;65.44;99500.59;4953969;28;20681;-66
2022/03/28 07:28:40;;;;;;;10.40;7.20;;;;;;;12.04;63.32;99492.94;4961091;28;20200;-66
2022/03/28 07:31:08;;;;;;;11.25;7.82;;;;;;;11.46;66.64;99485.88;4963922;28;20201;-65
2022/03/28 07:33:41;;;;;;;12.13;7.32;;;;;;;11.50;67.24;99482.22;4964100;28;20193;-66
2022/03/28 07:36:08;;;;;;;16.10;9.30;;;;;;;11.65;66.65;99489.16;4939844;28;20306;-65
2022/03/28 07:38:34;;;;;;;11.85;8.13;;;;;;;11.72;65.08;99469.78;4941618;28;20185;-65
2022/03/28 07:41:00;;;;;;;14.52;7.95;;;;;;;11.86;64.87;99487.97;4958342;28;20269;-65
2022/03/28 07:43:26;;;;;;;15.65;7.28;;;;;;;12.07;64.17;99486.75;4960356;28;20196;-65
2022/03/28 07:45:54;;;;;;;13.02;7.30;;;;;;;11.99;63.67;99488.94;4954207;28;20277;-65
2022/03/28 07:48:21;;;;;;;16.60;7.90;;;;;;;12.32;62.76;99487.00;4960337;28;20227;-66
2022/03/28 07:50:47;;;;;;;8.98;6.32;;;;;;;12.64;61.19;99484.16;4964084;28;20188;-65
2022/03/28 07:53:14;;;;;;;11.45;6.90;;;;;;;12.88;59.85;99487.03;4955281;28;20271;-65
2022/03/28 07:55:39;;;;;;;11.90;8.02;;;;;;;13.03;59.22;99484.38;4961711;28;20196;-66
2022/03/28 07:58:06;;;;;;;11.20;7.30;;;;;;;13.14;58.09;99486.31;4959203;28;20744;-66
2022/03/28 08:00:32;;;;;;;16.17;7.93;;;;;;;13.16;58.04;99477.50;4961924;28;20582;-66
2022/03/28 08:02:58;;;;;;;13.77;7.25;;;;;;;13.36;57.63;99479.69;4951218;28;20229;-66
2022/03/28 08:05:24;;;;;;;15.25;7.70;;;;;;;13.60;56.57;99482.50;4964983;28;20197;-65
2022/03/28 08:07:51;;;;;;;13.48;7.70;;;;;;;13.79;55.60;99477.78;4959613;28;20554;-66
2022/03/28 08:10:17;;;;;;;10.98;6.60;;;;;;;13.71;55.53;99469.66;4964891;28;20217;-66
2022/03/28 08:12:43;;;;;;;10.65;6.82;;;;;;;13.76;55.08;99478.81;4953723;28;20263;-66
2022/03/28 08:15:13;;;;;;;14.98;8.30;;;;;;;13.94;54.67;99476.81;4960129;28;20644;-66
2022/03/28 08:17:39;;;;;;;13.98;7.43;;;;;;;14.11;53.48;99469.53;4958385;28;20650;-66
2022/03/28 08:20:09;;;;;;;12.40;7.38;;;;;;;14.25;52.93;99469.53;4959111;28;20622;-66
2022/03/28 08:22:35;;;;;;;12.70;7.10;;;;;;;14.35;52.33;99461.91;4958369;28;20180;-66
2022/03/28 08:25:01;;;;;;;16.00;6.88;;;;;;;13.96;52.68;99459.31;4961680;28;20299;-66
2022/03/28 08:27:26;;;;;;;10.10;7.00;;;;;;;13.80;53.54;99464.69;4955418;28;20264;-66
2022/03/28 08:29:52;;;;;;;15.43;6.53;;;;;;;13.92;52.66;99457.84;4958400;28;20248;-66
2022/03/28 08:32:17;;;;;;;11.13;6.63;;;;;;;13.98;52.95;99458.28;4961457;28;20240;-66
2022/03/28 08:34:46;;;;;;;10.13;7.03;;;;;;;14.03;52.81;99455.38;4962925;28;20184;-66
2022/03/28 08:37:16;;;;;;;15.63;7.43;;;;;;;14.20;52.06;99448.16;4948819;28;20188;-66
2022/03/28 08:39:42;;;;;;;12.80;7.13;;;;;;;14.11;52.35;99440.09;4921355;28;20250;-66
2022/03/28 08:42:09;;;;;;;12.05;7.60;;;;;;;14.23;51.74;99441.91;4941141;28;20216;-66
2022/03/28 08:44:37;;;;;;;13.88;7.25;;;;;;;14.18;52.24;99429.16;4955856;28;20204;-66
2022/03/28 08:47:03;;;;;;;13.23;7.80;;;;;;;14.22;52.63;99425.44;4956150;28;20192;-66
2022/03/28 08:49:29;;;;;;;13.02;6.63;;;;;;;14.30;51.62;99424.94;4963905;28;20199;-67
2022/03/28 08:51:55;;;;;;;14.52;6.95;;;;;;;14.21;51.45;99404.72;4950979;28;20189;-66
2022/03/28 08:54:21;;;;;;;13.07;7.05;;;;;;;14.48;51.67;99415.88;4959636;28;20655;-66
2022/03/28 08:56:47;;;;;;;17.58;7.90;;;;;;;14.69;50.78;99412.63;4958207;28;20186;-66
2022/03/28 08:59:13;;;;;;;10.95;7.15;;;;;;;14.66;51.08;99402.44;4959860;28;20196;-66
2022/03/28 09:01:39;;;;;;;12.48;6.68;;;;;;;14.89;50.58;99406.03;4958413;28;20211;-66
2022/03/28 09:04:09;;;;;;;9.82;6.60;;;;;;;15.06;49.98;99403.06;4962435;28;20270;-66
2022/03/28 09:06:42;;;;;;;11.95;6.90;;;;;;;15.20;49.41;99406.34;4950059;28;20189;-66
2022/03/28 09:09:16;;;;;;;9.77;6.90;;;;;;;15.37;49.32;99402.56;4953346;28;20184;-66
2022/03/28 09:11:43;;;;;;;12.27;7.40;;;;;;;15.41;50.14;99388.38;4960854;28;20784;-67
2022/03/28 09:14:14;;;;;;;10.70;6.47;;;;;;;15.61;48.96;99392.94;4958875;28;20184;-66
2022/03/28 09:16:39;;;;;;;13.85;7.38;;;;;;;15.74;48.01;99389.34;4952939;28;20624;-66
2022/03/28 09:19:11;;;;;;;14.05;7.05;;;;;;;15.87;47.91;99384.06;4960297;28;20716;-66
2022/03/28 09:21:38;;;;;;;10.13;6.70;;;;;;;15.98;47.93;99384.09;4938080;28;20268;-66
2022/03/28 09:24:07;;;;;;;17.17;6.95;;;;;;;16.08;47.81;99385.88;4939951;28;20611;-67
2022/03/28 09:26:33;;;;;;;13.50;6.80;;;;;;;16.25;47.47;99377.59;4952826;28;20223;-66
2022/03/28 09:29:00;;;;;;;11.63;6.63;;;;;;;16.41;47.16;99372.91;4956624;28;20181;-66
2022/03/28 09:31:37;;;;;;;17.67;7.35;;;;;;;16.53;46.44;99371.13;4955126;28;20192;-66
2022/03/28 09:34:18;;;;;;;12.18;7.90;;;;;;;16.65;46.15;99378.00;4952455;28;20270;-67
2022/03/28 09:36:45;;;;;;;13.30;7.25;;;;;;;16.67;45.96;99371.72;4959273;28;20184;-66
2022/03/28 09:39:16;;;;;;;11.48;7.05;;;;;;;16.56;46.73;99360.44;4958349;28;20199;-66
2022/03/28 09:41:43;;;;;;;16.25;7.22;;;;;;;16.66;46.35;99358.75;4938626;28;20430;-67
2022/03/28 09:44:08;;;;;;;12.75;7.70;;;;;;;16.70;45.83;99357.56;4938557;28;20812;-66
2022/03/28 09:46:36;;;;;;;16.08;6.82;;;;;;;16.50;46.67;99361.72;4945128;28;20554;-66
2022/03/28 09:49:03;;;;;;;12.13;7.05;;;;;;;16.47;46.54;99346.31;4947786;28;20251;-66
2022/03/28 09:51:31;;;;;;;13.77;6.95;;;;;;;16.41;46.93;99352.00;4947584;28;20187;-66
2022/03/28 09:53:58;;;;;;;13.93;7.95;;;;;;;16.56;46.72;99350.00;4957058;28;20633;-66
2022/03/28 09:56:24;;;;;;;18.90;7.22;;;;;;;16.73;46.08;99341.66;4959140;28;20184;-66
2022/03/28 09:58:56;;;;;;;12.52;7.70;;;;;;;16.87;45.98;99339.63;4956204;28;20254;-66
2022/03/28 10:01:39;;;;;;;12.30;7.95;;;;;;;16.95;45.61;99315.47;4955759;28;20533;-66
2022/03/28 10:04:08;;;;;;;13.05;6.90;;;;;;;16.71;45.78;99325.25;4956619;28;20595;-66
2022/03/28 10:06:35;;;;;;;9.43;6.45;;;;;;;16.87;46.05;99323.09;4958875;28;20177;-66
2022/03/28 10:09:02;;;;;;;14.20;6.55;;;;;;;16.68;46.22;99320.28;4943884;28;20224;-66
2022/03/28 10:11:28;;;;;;;13.80;6.97;;;;;;;16.57;46.80;99312.44;4938336;28;20252;-66
2022/03/28 10:13:56;;;;;;;14.30;7.63;;;;;;;16.73;46.61;99311.13;4941153;28;20283;-66
2022/03/28 10:16:22;;;;;;;20.60;7.47;;;;;;;16.73;46.33;99305.88;4952603;28;20228;-67
2022/03/28 10:18:50;;;;;;;11.32;6.47;;;;;;;16.64;47.04;99300.56;4961558;28;20286;-67
2022/03/28 10:21:15;;;;;;;12.48;7.30;;;;;;;16.72;46.63;99299.00;4960274;28;20211;-66
2022/03/28 10:23:48;;;;;;;16.10;7.13;;;;;;;16.89;46.45;99289.81;4967087;28;20222;-66
2022/03/28 10:26:14;;;;;;;18.67;10.35;;;;;;;16.90;46.12;99281.03;4966263;28;20176;-67
2022/03/28 10:28:39;;;;;;;16.05;7.25;;;;;;;17.08;45.65;99279.53;4959313;28;20197;-66
2022/03/28 10:31:09;;;;;;;18.58;10.43;;;;;;;17.27;44.88;99279.69;4956431;28;20335;-66
2022/03/28 10:33:34;;;;;;;14.43;8.48;;;;;;;17.40;44.60;99272.53;4957456;28;20188;-66
2022/03/28 10:36:18;;;;;;;14.60;8.23;;;;;;;17.61;43.99;99265.53;4959321;28;20563;-66
2022/03/28 10:38:43;;;;;;;12.07;7.18;;;;;;;17.40;44.57;99262.06;4961075;28;20180;-66
2022/03/28 10:41:15;;;;;;;11.40;7.32;;;;;;;17.38;44.83;99258.75;4949023;28;20199;-66
2022/03/28 10:43:41;;;;;;;14.18;7.22;;;;;;;17.33;45.23;99243.41;4956779;28;20718;-66
2022/03/28 10:46:09;;;;;;;11.95;7.53;;;;;;;17.35;44.69;99240.66;4951742;29;20212;-66
2022/03/28 10:48:36;;;;;;;13.02;7.22;;;;;;;17.23;45.06;99242.50;4951530;29;20184;-66
2022/03/28 10:51:05;;;;;;;13.07;7.43;;;;;;;17.43;44.88;99233.03;4945077;29;20192;-66
2022/03/28 10:53:42;;;;;;;10.30;6.90;;;;;;;17.48;44.56;99228.25;4940968;29;20188;-66
2022/03/28 10:56:21;;;;;;;9.73;7.13;;;;;;;17.67;44.15;99225.75;4944874;29;20231;-66
2022/03/28 10:58:55;;;;;;;13.25;7.18;;;;;;;17.48;44.63;99215.19;4951791;29;20656;-66
2022/03/28 11:01:21;;;;;;;13.23;6.60;;;;;;;17.29;44.97;99215.00;4951590;29;20181;-66
2022/03/28 11:04:06;;;;;;;16.17;7.25;;;;;;;17.44;44.93;99211.97;4951359;28;20315;-66
2022/03/28 11:06:59;;;;;;;10.43;7.20;;;;;;;17.43;43.90;99201.66;4951596;29;20200;-66
2022/03/28 11:09:41;;;;;;;11.77;7.03;;;;;;;17.29;44.26;99197.53;4951593;29;20188;-66
2022/03/28 11:12:15;;;;;;;13.80;7.10;;;;;;;17.47;44.31;99197.78;4945302;29;20193;-66
2022/03/28 11:14:43;;;;;;;12.98;7.20;;;;;;;17.70;43.76;99189.66;4941266;29;20181;-66
2022/03/28 11:17:14;;;;;;;14.50;9.13;;;;;;;17.84;43.00;99191.94;4944389;29;20200;-66
2022/03/28 11:19:55;;;;;;;16.17;9.77;;;;;;;17.94;43.05;99191.97;4951488;29;20196;-66
2022/03/28 11:22:37;;;;;;;10.80;7.70;;;;;;;18.05;42.61;99181.41;4951505;29;20185;-66
2022/03/28 11:25:04;;;;;;;12.65;6.80;;;;;;;18.15;42.68;99174.41;4951201;29;20261;-66